sensor_id;sensor_type;location;lat;lon;timestamp;P1;durP1;ratioP1;P2;durP2;ratioP2
177;SDS011;77;48.792;9.032;2023-11-21T00:01:08;6.50;;;2.87;;
177;SDS011;77;48.792;9.032;2023-11-21T00:03:33;6.72;;;2.70;;
177;SDS011;77;48.792;9.032;2023-11-21T00:05:59;8.03;;;2.60;;
177;SDS011;77;48.792;9.032;2023-11-21T00:08:24;5.50;;;2.73;;
177;SDS011;77;48.792;9.032;2023-11-21T00:10:49;6.30;;;2.60;;
177;SDS011;77;48.792;9.032;2023-11-21T00:13:15;5.18;;;2.58;;
177;SDS011;77;48.792;9.032;2023-11-21T00:15:41;4.90;;;2.60;;
177;SDS011;77;48.792;9.032;2023-11-21T00:18:06;8.83;;;2.80;;
177;SDS011;77;48.792;9.032;2023-11-21T00:20:31;4.90;;;2.40;;
177;SDS011;77;48.792;9.032;2023-11-21T00:22:56;6.40;;;3.27;;
177;SDS011;77;48.792;9.032;2023-11-21T00:25:21;5.37;;;3.00;;
177;SDS011;77;48.792;9.032;2023-11-21T00:27:46;8.98;;;3.00;;
177;SDS011;77;48.792;9.032;2023-11-21T00:30:13;7.25;;;3.05;;
177;SDS011;77;48.792;9.032;2023-11-21T00:32:39;5.90;;;2.70;;
177;SDS011;77;48.792;9.032;2023-11-21T00:35:04;6.13;;;3.00;;
177;SDS011;77;48.792;9.032;2023-11-21T00:37:29;7.03;;;2.97;;
177;SDS011;77;48.792;9.032;2023-11-21T00:39:55;4.90;;;2.72;;
177;SDS011;77;48.792;9.032;2023-11-21T00:42:20;6.27;;;2.73;;
177;SDS011;77;48.792;9.032;2023-11-21T00:44:45;6.28;;;2.70;;
177;SDS011;77;48.792;9.032;2023-11-21T00:47:11;6.97;;;3.10;;
177;SDS011;77;48.792;9.032;2023-11-21T00:49:36;6.23;;;3.13;;
177;SDS011;77;48.792;9.032;2023-11-21T00:52:02;7.27;;;2.90;;
177;SDS011;77;48.792;9.032;2023-11-21T00:54:27;6.97;;;3.30;;
177;SDS011;77;48.792;9.032;2023-11-21T00:56:52;6.50;;;3.07;;
177;SDS011;77;48.792;9.032;2023-11-21T00:59:17;6.00;;;2.90;;
177;SDS011;77;48.792;9.032;2023-11-21T01:01:42;7.03;;;3.25;;
177;SDS011;77;48.792;9.032;2023-11-21T01:04:09;9.53;;;3.10;;
177;SDS011;77;48.792;9.032;2023-11-21T01:06:34;6.17;;;2.90;;
177;SDS011;77;48.792;9.032;2023-11-21T01:08:59;6.97;;;2.87;;
177;SDS011;77;48.792;9.032;2023-11-21T01:11:24;5.77;;;2.93;;
177;SDS011;77;48.792;9.032;2023-11-21T01:13:50;5.90;;;2.90;;
177;SDS011;77;48.792;9.032;2023-11-21T01:16:15;7.90;;;2.33;;
177;SDS011;77;48.792;9.032;2023-11-21T01:18:40;5.07;;;2.70;;
177;SDS011;77;48.792;9.032;2023-11-21T01:21:06;5.27;;;2.47;;
177;SDS011;77;48.792;9.032;2023-11-21T01:23:32;4.63;;;2.57;;
177;SDS011;77;48.792;9.032;2023-11-21T01:25:57;4.83;;;2.03;;
177;SDS011;77;48.792;9.032;2023-11-21T01:28:22;5.23;;;2.60;;
177;SDS011;77;48.792;9.032;2023-11-21T01:30:47;8.63;;;2.77;;
177;SDS011;77;48.792;9.032;2023-11-21T01:33:12;5.00;;;2.63;;
177;SDS011;77;48.792;9.032;2023-11-21T01:35:38;4.87;;;2.60;;
177;SDS011;77;48.792;9.032;2023-11-21T01:38:04;4.73;;;2.70;;
177;SDS011;77;48.792;9.032;2023-11-21T01:40:29;8.27;;;2.93;;
177;SDS011;77;48.792;9.032;2023-11-21T01:42:55;6.67;;;2.70;;
177;SDS011;77;48.792;9.032;2023-11-21T01:45:20;5.90;;;2.50;;
177;SDS011;77;48.792;9.032;2023-11-21T01:47:45;10.13;;;3.13;;
177;SDS011;77;48.792;9.032;2023-11-21T01:50:12;4.77;;;2.70;;
177;SDS011;77;48.792;9.032;2023-11-21T01:52:38;4.67;;;2.60;;
177;SDS011;77;48.792;9.032;2023-11-21T01:55:06;5.60;;;2.90;;
177;SDS011;77;48.792;9.032;2023-11-21T01:57:31;8.53;;;3.13;;
177;SDS011;77;48.792;9.032;2023-11-21T01:59:56;6.73;;;2.80;;
177;SDS011;77;48.792;9.032;2023-11-21T02:02:23;5.83;;;2.90;;
177;SDS011;77;48.792;9.032;2023-11-21T02:04:48;6.20;;;2.97;;
177;SDS011;77;48.792;9.032;2023-11-21T02:07:13;7.10;;;2.67;;
177;SDS011;77;48.792;9.032;2023-11-21T02:09:38;7.83;;;3.10;;
177;SDS011;77;48.792;9.032;2023-11-21T02:12:05;8.27;;;2.70;;
177;SDS011;77;48.792;9.032;2023-11-21T02:14:30;5.63;;;2.70;;
177;SDS011;77;48.792;9.032;2023-11-21T02:16:56;6.07;;;2.90;;
177;SDS011;77;48.792;9.032;2023-11-21T02:19:21;5.53;;;2.67;;
177;SDS011;77;48.792;9.032;2023-11-21T02:21:46;6.07;;;2.80;;
177;SDS011;77;48.792;9.032;2023-11-21T02:24:13;4.70;;;2.77;;
177;SDS011;77;48.792;9.032;2023-11-21T02:26:38;8.17;;;3.00;;
177;SDS011;77;48.792;9.032;2023-11-21T02:29:03;4.07;;;2.10;;
177;SDS011;77;48.792;9.032;2023-11-21T02:31:28;7.00;;;2.70;;
177;SDS011;77;48.792;9.032;2023-11-21T02:33:54;5.93;;;2.70;;
177;SDS011;77;48.792;9.032;2023-11-21T02:36:19;5.70;;;2.60;;
177;SDS011;77;48.792;9.032;2023-11-21T02:38:44;4.50;;;2.47;;
177;SDS011;77;48.792;9.032;2023-11-21T02:41:10;7.60;;;2.50;;
177;SDS011;77;48.792;9.032;2023-11-21T02:43:36;5.80;;;2.60;;
177;SDS011;77;48.792;9.032;2023-11-21T02:46:01;7.17;;;2.57;;
177;SDS011;77;48.792;9.032;2023-11-21T02:48:26;3.92;;;2.40;;
177;SDS011;77;48.792;9.032;2023-11-21T02:50:51;5.07;;;2.70;;
177;SDS011;77;48.792;9.032;2023-11-21T02:53:16;5.87;;;2.50;;
177;SDS011;77;48.792;9.032;2023-11-21T02:55:41;7.00;;;2.60;;
177;SDS011;77;48.792;9.032;2023-11-21T02:58:08;6.93;;;2.60;;
177;SDS011;77;48.792;9.032;2023-11-21T03:00:33;4.03;;;2.40;;
177;SDS011;77;48.792;9.032;2023-11-21T03:02:58;7.17;;;2.30;;
177;SDS011;77;48.792;9.032;2023-11-21T03:05:23;6.10;;;2.73;;
177;SDS011;77;48.792;9.032;2023-11-21T03:07:48;5.60;;;2.30;;
177;SDS011;77;48.792;9.032;2023-11-21T03:10:14;4.40;;;2.57;;
177;SDS011;77;48.792;9.032;2023-11-21T03:12:39;5.53;;;2.70;;
177;SDS011;77;48.792;9.032;2023-11-21T03:15:06;5.13;;;2.50;;
177;SDS011;77;48.792;9.032;2023-11-21T03:17:31;3.73;;;2.30;;
177;SDS011;77;48.792;9.032;2023-11-21T03:19:56;6.23;;;2.40;;
177;SDS011;77;48.792;9.032;2023-11-21T03:22:22;4.50;;;2.27;;
177;SDS011;77;48.792;9.032;2023-11-21T03:24:47;5.40;;;2.40;;
177;SDS011;77;48.792;9.032;2023-11-21T03:27:12;5.67;;;2.13;;
177;SDS011;77;48.792;9.032;2023-11-21T03:29:37;4.03;;;2.10;;
177;SDS011;77;48.792;9.032;2023-11-21T03:32:04;3.80;;;2.00;;
177;SDS011;77;48.792;9.032;2023-11-21T03:34:29;3.73;;;2.30;;
177;SDS011;77;48.792;9.032;2023-11-21T03:36:54;5.47;;;2.20;;
177;SDS011;77;48.792;9.032;2023-11-21T03:39:20;3.53;;;2.20;;
177;SDS011;77;48.792;9.032;2023-11-21T03:41:45;3.40;;;2.13;;
177;SDS011;77;48.792;9.032;2023-11-21T03:44:10;5.03;;;2.13;;
177;SDS011;77;48.792;9.032;2023-11-21T03:46:36;2.77;;;2.00;;
177;SDS011;77;48.792;9.032;2023-11-21T03:49:02;5.13;;;2.40;;
177;SDS011;77;48.792;9.032;2023-11-21T03:51:27;5.27;;;2.30;;
177;SDS011;77;48.792;9.032;2023-11-21T03:53:52;3.30;;;2.27;;
177;SDS011;77;48.792;9.032;2023-11-21T03:56:17;3.23;;;2.20;;
177;SDS011;77;48.792;9.032;2023-11-21T03:58:43;3.97;;;2.00;;
177;SDS011;77;48.792;9.032;2023-11-21T04:01:08;4.00;;;2.23;;
177;SDS011;77;48.792;9.032;2023-11-21T04:03:33;3.70;;;2.00;;
177;SDS011;77;48.792;9.032;2023-11-21T04:05:59;3.70;;;1.97;;
177;SDS011;77;48.792;9.032;2023-11-21T04:08:25;2.93;;;2.07;;
177;SDS011;77;48.792;9.032;2023-11-21T04:10:50;3.03;;;2.27;;
177;SDS011;77;48.792;9.032;2023-11-21T04:13:15;3.70;;;2.17;;
177;SDS011;77;48.792;9.032;2023-11-21T04:15:40;5.03;;;2.27;;
177;SDS011;77;48.792;9.032;2023-11-21T04:18:05;5.73;;;2.30;;
177;SDS011;77;48.792;9.032;2023-11-21T04:20:30;4.33;;;2.40;;
177;SDS011;77;48.792;9.032;2023-11-21T04:22:57;4.80;;;2.20;;
177;SDS011;77;48.792;9.032;2023-11-21T04:25:22;3.60;;;2.40;;
177;SDS011;77;48.792;9.032;2023-11-21T04:27:48;3.80;;;2.40;;
177;SDS011;77;48.792;9.032;2023-11-21T04:30:13;4.33;;;2.33;;
177;SDS011;77;48.792;9.032;2023-11-21T04:32:39;3.43;;;2.27;;
177;SDS011;77;48.792;9.032;2023-11-21T04:35:04;4.53;;;2.20;;
177;SDS011;77;48.792;9.032;2023-11-21T04:37:29;5.27;;;2.50;;
177;SDS011;77;48.792;9.032;2023-11-21T04:39:56;3.80;;;2.40;;
177;SDS011;77;48.792;9.032;2023-11-21T04:42:21;4.20;;;2.60;;
177;SDS011;77;48.792;9.032;2023-11-21T04:44:46;4.87;;;2.50;;
177;SDS011;77;48.792;9.032;2023-11-21T04:47:11;3.80;;;2.43;;
177;SDS011;77;48.792;9.032;2023-11-21T04:49:36;4.30;;;2.50;;
177;SDS011;77;48.792;9.032;2023-11-21T04:52:02;3.17;;;2.10;;
177;SDS011;77;48.792;9.032;2023-11-21T04:54:27;3.87;;;2.47;;
177;SDS011;77;48.792;9.032;2023-11-21T04:56:53;4.80;;;2.50;;
177;SDS011;77;48.792;9.032;2023-11-21T04:59:18;4.23;;;2.50;;
177;SDS011;77;48.792;9.032;2023-11-21T05:01:43;4.30;;;2.10;;
177;SDS011;77;48.792;9.032;2023-11-21T05:04:09;3.10;;;2.20;;
177;SDS011;77;48.792;9.032;2023-11-21T05:06:34;3.77;;;2.23;;
177;SDS011;77;48.792;9.032;2023-11-21T05:08:59;3.50;;;2.10;;
177;SDS011;77;48.792;9.032;2023-11-21T05:11:24;3.30;;;2.10;;
177;SDS011;77;48.792;9.032;2023-11-21T05:13:51;3.80;;;1.90;;
177;SDS011;77;48.792;9.032;2023-11-21T05:16:16;3.70;;;1.90;;
177;SDS011;77;48.792;9.032;2023-11-21T05:18:41;4.63;;;2.17;;
177;SDS011;77;48.792;9.032;2023-11-21T05:21:06;4.00;;;2.10;;
177;SDS011;77;48.792;9.032;2023-11-21T05:23:32;5.40;;;2.30;;
177;SDS011;77;48.792;9.032;2023-11-21T05:25:57;4.70;;;2.20;;
177;SDS011;77;48.792;9.032;2023-11-21T05:28:22;3.93;;;2.17;;
177;SDS011;77;48.792;9.032;2023-11-21T05:30:48;4.40;;;2.00;;
177;SDS011;77;48.792;9.032;2023-11-21T05:33:14;4.50;;;2.17;;
177;SDS011;77;48.792;9.032;2023-11-21T05:35:39;3.47;;;2.00;;
177;SDS011;77;48.792;9.032;2023-11-21T05:38:04;3.60;;;2.17;;
177;SDS011;77;48.792;9.032;2023-11-21T05:40:29;3.60;;;2.00;;
177;SDS011;77;48.792;9.032;2023-11-21T05:42:54;4.30;;;2.10;;
177;SDS011;77;48.792;9.032;2023-11-21T05:45:19;2.97;;;2.07;;
177;SDS011;77;48.792;9.032;2023-11-21T05:47:46;2.80;;;2.00;;
177;SDS011;77;48.792;9.032;2023-11-21T05:50:12;4.33;;;2.00;;
177;SDS011;77;48.792;9.032;2023-11-21T05:52:37;3.00;;;1.70;;
177;SDS011;77;48.792;9.032;2023-11-21T05:55:03;3.43;;;2.00;;
177;SDS011;77;48.792;9.032;2023-11-21T05:57:28;2.40;;;1.73;;
177;SDS011;77;48.792;9.032;2023-11-21T05:59:54;3.50;;;2.17;;
177;SDS011;77;48.792;9.032;2023-11-21T06:02:19;3.37;;;1.70;;
177;SDS011;77;48.792;9.032;2023-11-21T06:04:45;3.30;;;2.03;;
177;SDS011;77;48.792;9.032;2023-11-21T06:07:10;5.70;;;2.00;;
177;SDS011;77;48.792;9.032;2023-11-21T06:09:36;7.50;;;2.00;;
177;SDS011;77;48.792;9.032;2023-11-21T06:12:01;3.20;;;2.20;;
177;SDS011;77;48.792;9.032;2023-11-21T06:14:27;3.87;;;2.20;;
177;SDS011;77;48.792;9.032;2023-11-21T06:16:52;3.53;;;2.70;;
177;SDS011;77;48.792;9.032;2023-11-21T06:19:17;3.23;;;2.53;;
177;SDS011;77;48.792;9.032;2023-11-21T06:21:46;4.40;;;2.47;;
177;SDS011;77;48.792;9.032;2023-11-21T06:24:11;4.83;;;2.80;;
177;SDS011;77;48.792;9.032;2023-11-21T06:26:36;5.27;;;2.70;;
177;SDS011;77;48.792;9.032;2023-11-21T06:29:01;3.17;;;2.60;;
177;SDS011;77;48.792;9.032;2023-11-21T06:31:26;4.30;;;3.23;;
177;SDS011;77;48.792;9.032;2023-11-21T06:33:52;4.77;;;2.60;;
177;SDS011;77;48.792;9.032;2023-11-21T06:36:17;4.33;;;2.83;;
177;SDS011;77;48.792;9.032;2023-11-21T06:38:43;4.03;;;2.80;;
177;SDS011;77;48.792;9.032;2023-11-21T06:41:08;4.57;;;2.87;;
177;SDS011;77;48.792;9.032;2023-11-21T06:43:34;4.20;;;3.07;;
177;SDS011;77;48.792;9.032;2023-11-21T06:45:59;4.60;;;3.03;;
177;SDS011;77;48.792;9.032;2023-11-21T06:48:24;6.93;;;3.10;;
177;SDS011;77;48.792;9.032;2023-11-21T06:50:49;3.60;;;2.77;;
177;SDS011;77;48.792;9.032;2023-11-21T06:53:14;3.63;;;2.60;;
177;SDS011;77;48.792;9.032;2023-11-21T06:55:41;5.63;;;2.80;;
177;SDS011;77;48.792;9.032;2023-11-21T06:58:06;4.47;;;2.70;;
177;SDS011;77;48.792;9.032;2023-11-21T07:00:31;3.70;;;2.67;;
177;SDS011;77;48.792;9.032;2023-11-21T07:02:56;3.83;;;2.67;;
177;SDS011;77;48.792;9.032;2023-11-21T07:05:22;4.43;;;2.40;;
177;SDS011;77;48.792;9.032;2023-11-21T07:07:47;3.83;;;2.57;;
177;SDS011;77;48.792;9.032;2023-11-21T07:10:12;3.67;;;2.40;;
177;SDS011;77;48.792;9.032;2023-11-21T07:12:38;3.40;;;2.43;;
177;SDS011;77;48.792;9.032;2023-11-21T07:15:04;3.07;;;2.30;;
177;SDS011;77;48.792;9.032;2023-11-21T07:17:29;5.70;;;2.20;;
177;SDS011;77;48.792;9.032;2023-11-21T07:19:54;3.30;;;2.37;;
177;SDS011;77;48.792;9.032;2023-11-21T07:22:20;4.20;;;2.60;;
177;SDS011;77;48.792;9.032;2023-11-21T07:24:45;3.83;;;2.83;;
177;SDS011;77;48.792;9.032;2023-11-21T07:27:10;5.83;;;3.03;;
177;SDS011;77;48.792;9.032;2023-11-21T07:29:37;4.00;;;2.47;;
177;SDS011;77;48.792;9.032;2023-11-21T07:32:02;3.87;;;2.33;;
177;SDS011;77;48.792;9.032;2023-11-21T07:34:27;4.10;;;2.47;;
177;SDS011;77;48.792;9.032;2023-11-21T07:36:52;3.93;;;2.80;;
177;SDS011;77;48.792;9.032;2023-11-21T07:39:17;4.40;;;2.80;;
177;SDS011;77;48.792;9.032;2023-11-21T07:41:43;3.03;;;2.30;;
177;SDS011;77;48.792;9.032;2023-11-21T07:44:08;3.67;;;2.40;;
177;SDS011;77;48.792;9.032;2023-11-21T07:46:34;4.30;;;2.70;;
177;SDS011;77;48.792;9.032;2023-11-21T07:48:59;4.07;;;2.80;;
177;SDS011;77;48.792;9.032;2023-11-21T07:51:25;3.65;;;2.53;;
177;SDS011;77;48.792;9.032;2023-11-21T07:53:50;3.77;;;2.43;;
177;SDS011;77;48.792;9.032;2023-11-21T07:56:15;3.50;;;2.63;;
177;SDS011;77;48.792;9.032;2023-11-21T07:58:40;5.43;;;2.87;;
177;SDS011;77;48.792;9.032;2023-11-21T08:01:05;4.27;;;2.57;;
177;SDS011;77;48.792;9.032;2023-11-21T08:03:32;4.67;;;2.57;;
177;SDS011;77;48.792;9.032;2023-11-21T08:05:57;4.90;;;2.80;;
177;SDS011;77;48.792;9.032;2023-11-21T08:08:22;3.40;;;2.50;;
177;SDS011;77;48.792;9.032;2023-11-21T08:10:48;3.70;;;2.50;;
177;SDS011;77;48.792;9.032;2023-11-21T08:13:13;4.47;;;2.60;;
177;SDS011;77;48.792;9.032;2023-11-21T08:15:38;7.13;;;3.07;;
177;SDS011;77;48.792;9.032;2023-11-21T08:18:03;5.10;;;2.70;;
177;SDS011;77;48.792;9.032;2023-11-21T08:20:30;6.33;;;2.80;;
177;SDS011;77;48.792;9.032;2023-11-21T08:22:55;3.60;;;2.40;;
177;SDS011;77;48.792;9.032;2023-11-21T08:25:20;4.20;;;2.80;;
177;SDS011;77;48.792;9.032;2023-11-21T08:27:45;4.70;;;2.70;;
177;SDS011;77;48.792;9.032;2023-11-21T08:30:11;4.00;;;2.70;;
177;SDS011;77;48.792;9.032;2023-11-21T08:32:36;4.00;;;2.63;;
177;SDS011;77;48.792;9.032;2023-11-21T08:35:01;7.30;;;2.80;;
177;SDS011;77;48.792;9.032;2023-11-21T08:37:28;5.37;;;2.90;;
177;SDS011;77;48.792;9.032;2023-11-21T08:39:53;5.00;;;2.73;;
177;SDS011;77;48.792;9.032;2023-11-21T08:42:18;6.67;;;3.30;;
177;SDS011;77;48.792;9.032;2023-11-21T08:44:43;4.67;;;3.10;;
177;SDS011;77;48.792;9.032;2023-11-21T08:47:09;5.70;;;2.80;;
177;SDS011;77;48.792;9.032;2023-11-21T08:49:34;3.67;;;2.80;;
177;SDS011;77;48.792;9.032;2023-11-21T08:51:59;4.40;;;2.93;;
177;SDS011;77;48.792;9.032;2023-11-21T08:54:26;5.50;;;2.80;;
177;SDS011;77;48.792;9.032;2023-11-21T08:56:51;4.23;;;3.13;;
177;SDS011;77;48.792;9.032;2023-11-21T08:59:16;5.07;;;2.90;;
177;SDS011;77;48.792;9.032;2023-11-21T09:01:41;4.40;;;2.50;;
177;SDS011;77;48.792;9.032;2023-11-21T09:04:06;3.73;;;2.40;;
177;SDS011;77;48.792;9.032;2023-11-21T09:06:31;3.27;;;2.40;;
177;SDS011;77;48.792;9.032;2023-11-21T09:08:57;4.77;;;2.50;;
177;SDS011;77;48.792;9.032;2023-11-21T09:11:23;7.60;;;4.50;;
177;SDS011;77;48.792;9.032;2023-11-21T09:13:48;11.90;;;9.13;;
177;SDS011;77;48.792;9.032;2023-11-21T09:16:14;12.93;;;9.17;;
177;SDS011;77;48.792;9.032;2023-11-21T09:18:39;12.10;;;9.13;;
177;SDS011;77;48.792;9.032;2023-11-21T09:21:04;6.10;;;3.90;;
177;SDS011;77;48.792;9.032;2023-11-21T09:23:29;5.97;;;4.30;;
177;SDS011;77;48.792;9.032;2023-11-21T09:25:55;6.60;;;4.23;;
177;SDS011;77;48.792;9.032;2023-11-21T09:28:21;7.63;;;4.60;;
177;SDS011;77;48.792;9.032;2023-11-21T09:30:46;6.10;;;4.40;;
177;SDS011;77;48.792;9.032;2023-11-21T09:33:11;15.00;;;10.33;;
177;SDS011;77;48.792;9.032;2023-11-21T09:35:37;6.40;;;5.07;;
177;SDS011;77;48.792;9.032;2023-11-21T09:38:02;6.37;;;3.70;;
177;SDS011;77;48.792;9.032;2023-11-21T09:40:27;8.27;;;3.60;;
177;SDS011;77;48.792;9.032;2023-11-21T09:42:54;5.87;;;3.50;;
177;SDS011;77;48.792;9.032;2023-11-21T09:45:24;5.33;;;4.17;;
177;SDS011;77;48.792;9.032;2023-11-21T09:47:49;4.00;;;2.60;;
177;SDS011;77;48.792;9.032;2023-11-21T09:50:16;4.50;;;2.67;;
177;SDS011;77;48.792;9.032;2023-11-21T09:52:44;6.10;;;3.00;;
177;SDS011;77;48.792;9.032;2023-11-21T09:55:14;3.60;;;2.90;;
177;SDS011;77;48.792;9.032;2023-11-21T09:57:40;7.37;;;4.97;;
177;SDS011;77;48.792;9.032;2023-11-21T10:00:07;4.73;;;2.57;;
177;SDS011;77;48.792;9.032;2023-11-21T10:02:34;5.40;;;3.00;;
177;SDS011;77;48.792;9.032;2023-11-21T10:04:59;5.40;;;2.63;;
177;SDS011;77;48.792;9.032;2023-11-21T10:07:25;4.10;;;2.83;;
177;SDS011;77;48.792;9.032;2023-11-21T10:09:52;5.63;;;2.63;;
177;SDS011;77;48.792;9.032;2023-11-21T10:12:17;3.80;;;3.00;;
177;SDS011;77;48.792;9.032;2023-11-21T10:14:43;4.37;;;3.00;;
177;SDS011;77;48.792;9.032;2023-11-21T10:17:12;6.27;;;3.40;;
177;SDS011;77;48.792;9.032;2023-11-21T10:19:39;23.30;;;17.97;;
177;SDS011;77;48.792;9.032;2023-11-21T10:22:04;31.20;;;22.70;;
177;SDS011;77;48.792;9.032;2023-11-21T10:24:30;9.63;;;7.17;;
177;SDS011;77;48.792;9.032;2023-11-21T10:26:55;10.20;;;6.53;;
177;SDS011;77;48.792;9.032;2023-11-21T10:29:20;5.50;;;4.40;;
177;SDS011;77;48.792;9.032;2023-11-21T10:31:45;8.10;;;4.70;;
177;SDS011;77;48.792;9.032;2023-11-21T10:34:13;6.60;;;4.50;;
177;SDS011;77;48.792;9.032;2023-11-21T10:36:40;5.17;;;4.00;;
177;SDS011;77;48.792;9.032;2023-11-21T10:39:05;7.10;;;4.30;;
177;SDS011;77;48.792;9.032;2023-11-21T10:41:30;5.10;;;4.20;;
177;SDS011;77;48.792;9.032;2023-11-21T10:43:56;5.80;;;4.10;;
177;SDS011;77;48.792;9.032;2023-11-21T10:46:21;4.57;;;3.40;;
177;SDS011;77;48.792;9.032;2023-11-21T10:48:50;4.83;;;3.60;;
177;SDS011;77;48.792;9.032;2023-11-21T10:51:16;4.90;;;3.60;;
177;SDS011;77;48.792;9.032;2023-11-21T10:53:43;6.60;;;3.83;;
177;SDS011;77;48.792;9.032;2023-11-21T10:56:08;5.50;;;3.77;;
177;SDS011;77;48.792;9.032;2023-11-21T10:58:34;8.20;;;3.90;;
177;SDS011;77;48.792;9.032;2023-11-21T11:01:00;7.50;;;3.90;;
177;SDS011;77;48.792;9.032;2023-11-21T11:03:26;6.20;;;4.03;;
177;SDS011;77;48.792;9.032;2023-11-21T11:05:52;7.47;;;3.87;;
177;SDS011;77;48.792;9.032;2023-11-21T11:08:17;6.17;;;4.40;;
177;SDS011;77;48.792;9.032;2023-11-21T11:10:45;7.33;;;4.83;;
177;SDS011;77;48.792;9.032;2023-11-21T11:13:10;4.70;;;3.87;;
177;SDS011;77;48.792;9.032;2023-11-21T11:15:35;4.60;;;3.67;;
177;SDS011;77;48.792;9.032;2023-11-21T11:18:00;4.93;;;3.47;;
177;SDS011;77;48.792;9.032;2023-11-21T11:20:28;6.07;;;3.73;;
177;SDS011;77;48.792;9.032;2023-11-21T11:23:03;5.53;;;3.70;;
177;SDS011;77;48.792;9.032;2023-11-21T11:25:35;3.60;;;2.97;;
177;SDS011;77;48.792;9.032;2023-11-21T11:28:04;3.33;;;2.90;;
177;SDS011;77;48.792;9.032;2023-11-21T11:30:36;4.10;;;3.40;;
177;SDS011;77;48.792;9.032;2023-11-21T11:33:07;3.70;;;2.83;;
177;SDS011;77;48.792;9.032;2023-11-21T11:35:37;4.10;;;2.70;;
177;SDS011;77;48.792;9.032;2023-11-21T11:38:03;3.97;;;2.87;;
177;SDS011;77;48.792;9.032;2023-11-21T11:40:38;3.60;;;2.70;;
177;SDS011;77;48.792;9.032;2023-11-21T11:43:05;3.70;;;2.90;;
177;SDS011;77;48.792;9.032;2023-11-21T11:45:31;3.20;;;2.93;;
177;SDS011;77;48.792;9.032;2023-11-21T11:47:57;3.53;;;2.90;;
177;SDS011;77;48.792;9.032;2023-11-21T11:50:22;4.07;;;2.70;;
177;SDS011;77;48.792;9.032;2023-11-21T11:52:48;4.37;;;2.60;;
177;SDS011;77;48.792;9.032;2023-11-21T11:55:14;3.40;;;2.70;;
177;SDS011;77;48.792;9.032;2023-11-21T11:57:39;4.10;;;2.90;;
177;SDS011;77;48.792;9.032;2023-11-21T12:00:10;3.87;;;2.97;;
177;SDS011;77;48.792;9.032;2023-11-21T12:02:36;3.93;;;3.13;;
177;SDS011;77;48.792;9.032;2023-11-21T12:05:01;4.93;;;3.37;;
177;SDS011;77;48.792;9.032;2023-11-21T12:07:38;4.23;;;2.80;;
177;SDS011;77;48.792;9.032;2023-11-21T12:10:04;4.00;;;2.90;;
177;SDS011;77;48.792;9.032;2023-11-21T12:12:29;4.20;;;3.00;;
177;SDS011;77;48.792;9.032;2023-11-21T12:14:54;5.40;;;3.40;;
177;SDS011;77;48.792;9.032;2023-11-21T12:17:21;5.03;;;3.80;;
177;SDS011;77;48.792;9.032;2023-11-21T12:19:47;6.37;;;4.70;;
177;SDS011;77;48.792;9.032;2023-11-21T12:22:12;7.10;;;4.87;;
177;SDS011;77;48.792;9.032;2023-11-21T12:24:37;10.97;;;4.97;;
177;SDS011;77;48.792;9.032;2023-11-21T12:27:02;8.00;;;5.40;;
177;SDS011;77;48.792;9.032;2023-11-21T12:29:27;8.30;;;5.20;;
177;SDS011;77;48.792;9.032;2023-11-21T12:31:53;9.20;;;6.20;;
177;SDS011;77;48.792;9.032;2023-11-21T12:34:19;7.43;;;5.63;;
177;SDS011;77;48.792;9.032;2023-11-21T12:36:44;8.30;;;5.70;;
177;SDS011;77;48.792;9.032;2023-11-21T12:39:10;8.33;;;6.10;;
177;SDS011;77;48.792;9.032;2023-11-21T12:41:35;8.63;;;6.30;;
177;SDS011;77;48.792;9.032;2023-11-21T12:44:00;8.93;;;6.27;;
177;SDS011;77;48.792;9.032;2023-11-21T12:46:25;7.80;;;6.10;;
177;SDS011;77;48.792;9.032;2023-11-21T12:48:50;7.70;;;5.83;;
177;SDS011;77;48.792;9.032;2023-11-21T12:51:17;9.20;;;6.40;;
177;SDS011;77;48.792;9.032;2023-11-21T12:53:42;7.30;;;6.17;;
177;SDS011;77;48.792;9.032;2023-11-21T12:56:09;11.33;;;7.00;;
177;SDS011;77;48.792;9.032;2023-11-21T12:58:34;9.27;;;6.70;;
177;SDS011;77;48.792;9.032;2023-11-21T13:01:00;10.80;;;6.23;;
177;SDS011;77;48.792;9.032;2023-11-21T13:03:25;9.77;;;6.03;;
177;SDS011;77;48.792;9.032;2023-11-21T13:05:50;8.43;;;6.23;;
177;SDS011;77;48.792;9.032;2023-11-21T13:08:16;9.47;;;5.97;;
177;SDS011;77;48.792;9.032;2023-11-21T13:10:43;9.57;;;6.83;;
177;SDS011;77;48.792;9.032;2023-11-21T13:13:09;7.40;;;5.73;;
177;SDS011;77;48.792;9.032;2023-11-21T13:15:38;10.07;;;6.20;;
177;SDS011;77;48.792;9.032;2023-11-21T13:18:03;6.57;;;5.07;;
177;SDS011;77;48.792;9.032;2023-11-21T13:20:28;4.70;;;4.00;;
177;SDS011;77;48.792;9.032;2023-11-21T13:22:54;5.10;;;4.10;;
177;SDS011;77;48.792;9.032;2023-11-21T13:25:21;3.90;;;3.20;;
177;SDS011;77;48.792;9.032;2023-11-21T13:27:46;5.00;;;3.60;;
177;SDS011;77;48.792;9.032;2023-11-21T13:30:12;3.77;;;3.03;;
177;SDS011;77;48.792;9.032;2023-11-21T13:32:37;3.70;;;3.03;;
177;SDS011;77;48.792;9.032;2023-11-21T13:35:03;3.30;;;2.70;;
177;SDS011;77;48.792;9.032;2023-11-21T13:37:28;3.80;;;3.00;;
177;SDS011;77;48.792;9.032;2023-11-21T13:39:53;5.63;;;3.13;;
177;SDS011;77;48.792;9.032;2023-11-21T13:42:20;4.43;;;2.80;;
177;SDS011;77;48.792;9.032;2023-11-21T13:44:45;6.63;;;3.60;;
177;SDS011;77;48.792;9.032;2023-11-21T13:47:10;5.07;;;3.40;;
177;SDS011;77;48.792;9.032;2023-11-21T13:49:35;4.40;;;3.60;;
177;SDS011;77;48.792;9.032;2023-11-21T13:52:00;4.20;;;3.37;;
177;SDS011;77;48.792;9.032;2023-11-21T13:54:26;6.80;;;3.97;;
177;SDS011;77;48.792;9.032;2023-11-21T13:56:51;5.37;;;3.60;;
177;SDS011;77;48.792;9.032;2023-11-21T13:59:17;6.50;;;3.57;;
177;SDS011;77;48.792;9.032;2023-11-21T14:01:43;6.37;;;3.93;;
177;SDS011;77;48.792;9.032;2023-11-21T14:04:08;4.97;;;3.97;;
177;SDS011;77;48.792;9.032;2023-11-21T14:06:33;5.40;;;4.00;;
177;SDS011;77;48.792;9.032;2023-11-21T14:08:58;6.80;;;4.03;;
177;SDS011;77;48.792;9.032;2023-11-21T14:11:23;8.27;;;4.03;;
177;SDS011;77;48.792;9.032;2023-11-21T14:13:49;6.23;;;4.00;;
177;SDS011;77;48.792;9.032;2023-11-21T14:16:15;6.50;;;3.53;;
177;SDS011;77;48.792;9.032;2023-11-21T14:18:41;8.63;;;4.07;;
177;SDS011;77;48.792;9.032;2023-11-21T14:21:06;6.80;;;3.77;;
177;SDS011;77;48.792;9.032;2023-11-21T14:23:31;5.30;;;3.40;;
177;SDS011;77;48.792;9.032;2023-11-21T14:25:56;4.90;;;3.60;;
177;SDS011;77;48.792;9.032;2023-11-21T14:28:22;4.70;;;3.47;;
177;SDS011;77;48.792;9.032;2023-11-21T14:30:48;5.20;;;3.63;;
177;SDS011;77;48.792;9.032;2023-11-21T14:33:14;5.13;;;3.50;;
177;SDS011;77;48.792;9.032;2023-11-21T14:35:39;4.83;;;3.40;;
177;SDS011;77;48.792;9.032;2023-11-21T14:38:04;5.30;;;3.60;;
177;SDS011;77;48.792;9.032;2023-11-21T14:40:30;5.67;;;3.50;;
177;SDS011;77;48.792;9.032;2023-11-21T14:42:55;7.20;;;3.60;;
177;SDS011;77;48.792;9.032;2023-11-21T14:45:20;4.40;;;3.53;;
177;SDS011;77;48.792;9.032;2023-11-21T14:47:45;7.90;;;4.13;;
177;SDS011;77;48.792;9.032;2023-11-21T14:50:12;6.17;;;4.33;;
177;SDS011;77;48.792;9.032;2023-11-21T14:52:37;5.40;;;4.10;;
177;SDS011;77;48.792;9.032;2023-11-21T14:55:02;5.53;;;3.90;;
177;SDS011;77;48.792;9.032;2023-11-21T14:57:28;5.67;;;4.03;;
177;SDS011;77;48.792;9.032;2023-11-21T14:59:53;6.13;;;4.17;;
177;SDS011;77;48.792;9.032;2023-11-21T15:02:18;6.83;;;4.47;;
177;SDS011;77;48.792;9.032;2023-11-21T15:04:43;5.27;;;3.93;;
177;SDS011;77;48.792;9.032;2023-11-21T15:07:10;4.97;;;3.53;;
177;SDS011;77;48.792;9.032;2023-11-21T15:09:35;4.50;;;3.60;;
177;SDS011;77;48.792;9.032;2023-11-21T15:12:01;6.63;;;3.70;;
177;SDS011;77;48.792;9.032;2023-11-21T15:14:26;4.23;;;3.63;;
177;SDS011;77;48.792;9.032;2023-11-21T15:16:51;5.57;;;3.67;;
177;SDS011;77;48.792;9.032;2023-11-21T15:19:16;5.33;;;3.83;;
177;SDS011;77;48.792;9.032;2023-11-21T15:21:42;5.70;;;4.07;;
177;SDS011;77;48.792;9.032;2023-11-21T15:24:08;5.90;;;4.33;;
177;SDS011;77;48.792;9.032;2023-11-21T15:26:33;5.50;;;4.60;;
177;SDS011;77;48.792;9.032;2023-11-21T15:28:58;5.97;;;4.57;;
177;SDS011;77;48.792;9.032;2023-11-21T15:31:24;5.47;;;4.53;;
177;SDS011;77;48.792;9.032;2023-11-21T15:33:49;8.97;;;5.37;;
177;SDS011;77;48.792;9.032;2023-11-21T15:36:14;7.27;;;5.23;;
177;SDS011;77;48.792;9.032;2023-11-21T15:38:39;7.23;;;5.73;;
177;SDS011;77;48.792;9.032;2023-11-21T15:41:06;6.10;;;5.13;;
177;SDS011;77;48.792;9.032;2023-11-21T15:43:31;7.50;;;5.60;;
177;SDS011;77;48.792;9.032;2023-11-21T15:45:56;6.17;;;5.27;;
177;SDS011;77;48.792;9.032;2023-11-21T15:48:21;10.90;;;5.30;;